Wednesday, April 01, 2015
08:01 UTC
  |  Log In   |  Register Free
Airport Search:

Lonesome Pine Airport
(KLNP)

Lonesome Pine Airport Diagram
No Airport Diagram Available

FAA data valid effective March 05, 2015 - April 30, 2015 (unless otherwise noted).

 
 
 
 
 
 
 
 
 
 
 
 
 
 

Current Aviation Weather for Lonesome Pine Airport (KLNP)

The most recent METAR observation for KLNP was updated at: 0710
METAR Summary (Translated METAR)
KLNP
010655Z AUTO 35006KT 10SM CLR 06/01 A3000 RMK AO2
KVJI
010655Z AUTO 36004KT 10SM CLR 11/01 A2995 RMK AO2 T01140010
(29.9 nm SE from KLNP)
KTRI
010653Z 34005KT 10SM CLR 11/00 A2995 RMK AO2 SLP124 T01110000
(31.3 nm SE from KLNP)
TAF Summary (Translated TAF)
KTRI
(31.3 nm SE from KLNP)
010525Z 0106/0206 28003KT P6SM SKC FM011200 01003KT P6SM SKC
  Airport Weather Conditions for KLNP

 Current Weather at LNP
43° F
Fair
North winds at 6.9 mph
LNP NOAA Radar

Pressure: 30.00 in
Humidity: 71%
Wind: North at 6.9 MPH (6 KT)
Dew Point: 33.8°F
Visibility: 10.00 mi


Airport Weather Forecast for KLNP

Translated METAR and TAF for KLNP
Translated METAR for KLNP (0801 UTC 01 April 2015)
found at http://aviationweather.gov/adds/metars/
 
METAR text: KLNP 010755Z AUTO 34005KT 10SM CLR 05/01 A2998 RMK AO2
Conditions at: KLNP (WISE/LONESOME PI, VA, US) observed 0755 UTC 01 April 2015
Temperature: 5.0°C (41°F)
Dewpoint: 1.0°C (34°F) [RH = 75%]
Pressure (altimeter): 29.98 inches Hg (1015.3 mb)
Winds: from the NNW (340 degrees) at 6 MPH (5 knots; 2.6 m/s)
Visibility: 10 or more miles (16+ km)
Ceiling: at least 12,000 feet AGL
Clouds: sky clear below 12,000 feet AGL
Weather: automated observation with no human augmentation;
there may or may not be significant weather present at this time
Translated TAF for KLNP

There is no translated TAF available for this airport

Find All Airport Services Find A Hotel Find A Rental Car Find A Golf Course Find A Restaurant $100 Hamburger



FBO's on the Field
FBO Company Facility Photos Services Transportation Aviation Fuel Prices: Prices include tax
Catering Weather Repair Courtesy Rental Type 100LL JetA JetA+ MOGAS 8087
 
Lonesome Pine Airport

This FBO has not yet been rated
FS:Shell
Last Updated: Mar-30
Login to update fuel prices
SS:
Contact Lonesome Pine AirportMore FBO Information
 
Add another FBO Facility Photos Catering Weather Repair Courtesy Rental Type 100LL JetA JetA+ MOGAS 8087
Services Transportation Aviation Fuel Prices: Prices include tax


model-print
model-print
model-print
model-print